createdAt,value
2023-04-11T00:01:15.375Z,51.13
2023-04-11T00:02:47.914Z,51.42
2023-04-11T00:04:21.140Z,51.48
2023-04-11T00:05:52.899Z,51.30
2023-04-11T00:07:24.686Z,51.73
2023-04-11T00:08:57.187Z,51.50
2023-04-11T00:10:29.074Z,51.17
2023-04-11T00:12:02.092Z,51.02
2023-04-11T00:13:34.849Z,51.59
2023-04-11T00:15:08.162Z,51.41
2023-04-11T00:16:39.991Z,51.40
2023-04-11T00:18:12.796Z,51.65
2023-04-11T00:19:46.604Z,51.63
2023-04-11T00:21:18.305Z,51.51
2023-04-11T00:22:51.104Z,51.37
2023-04-11T00:24:23.004Z,51.57
2023-04-11T00:25:54.905Z,51.63
2023-04-11T00:27:26.677Z,51.23
2023-04-11T00:28:58.482Z,51.48
2023-04-11T00:30:30.984Z,52.05
2023-04-11T00:32:03.684Z,52.05
2023-04-11T00:33:36.089Z,51.75
2023-04-11T00:35:08.985Z,51.98
2023-04-11T00:36:42.500Z,52.12
2023-04-11T00:38:14.303Z,51.85
2023-04-11T00:39:45.864Z,52.29
2023-04-11T00:41:17.595Z,51.98
2023-04-11T00:42:49.742Z,51.83
2023-04-11T00:44:22.442Z,52.08
2023-04-11T00:45:54.311Z,52.18
2023-04-11T00:47:25.936Z,52.04
2023-04-11T00:48:58.090Z,52.03
2023-04-11T00:50:30.260Z,52.32
2023-04-11T00:52:02.079Z,52.37
2023-04-11T00:53:34.719Z,52.43
2023-04-11T00:55:09.580Z,52.19
2023-04-11T00:56:42.466Z,52.27
2023-04-11T00:58:14.071Z,52.69
2023-04-11T00:59:48.449Z,52.47
2023-04-11T01:01:25.340Z,52.70
2023-04-11T01:02:57.791Z,52.13
2023-04-11T01:04:32.974Z,52.18
2023-04-11T01:06:06.513Z,52.55
2023-04-11T01:07:38.231Z,52.27
2023-04-11T01:09:09.857Z,52.26
2023-04-11T01:10:41.610Z,52.34
2023-04-11T01:12:13.472Z,52.25
2023-04-11T01:13:45.035Z,52.53
2023-04-11T01:15:16.766Z,52.04
2023-04-11T01:16:50.852Z,52.04
2023-04-11T01:18:22.720Z,52.16
2023-04-11T01:19:54.432Z,51.81
2023-04-11T01:21:27.251Z,51.94
2023-04-11T01:22:59.269Z,52.32
2023-04-11T01:24:31.170Z,51.88
2023-04-11T01:26:02.658Z,51.81
2023-04-11T01:27:34.669Z,52.12
2023-04-11T01:29:06.618Z,52.26
2023-04-11T01:30:38.231Z,52.45
2023-04-11T01:32:09.859Z,52.28
2023-04-11T01:33:42.231Z,52.55
2023-04-11T01:35:13.774Z,52.56
2023-04-11T01:36:45.714Z,52.20
2023-04-11T01:38:17.469Z,52.33
2023-04-11T01:39:49.153Z,52.10
2023-04-11T01:41:21.191Z,52.40
2023-04-11T01:42:53.310Z,52.42
2023-04-11T01:44:24.963Z,52.58
2023-04-11T01:45:56.522Z,52.62
2023-04-11T01:47:28.154Z,52.58
2023-04-11T01:49:01.245Z,52.92
2023-04-11T01:50:33.776Z,52.65
2023-04-11T01:52:05.427Z,52.62
2023-04-11T01:53:37.054Z,52.59
2023-04-11T01:55:08.773Z,52.61
2023-04-11T01:56:40.541Z,52.71
2023-04-11T01:58:12.606Z,52.56
2023-04-11T01:59:44.266Z,52.78
2023-04-11T02:01:19.675Z,52.92
2023-04-11T02:02:51.522Z,52.85
2023-04-11T02:04:23.518Z,52.82
2023-04-11T02:05:55.347Z,52.94
2023-04-11T02:07:27.645Z,52.77
2023-04-11T02:08:59.333Z,52.92
2023-04-11T02:10:30.944Z,53.00
2023-04-11T02:12:02.658Z,52.77
2023-04-11T02:13:35.374Z,52.82
2023-04-11T02:15:08.938Z,53.10
2023-04-11T02:16:54.242Z,52.91
2023-04-11T02:18:26.206Z,52.99
2023-04-11T02:19:58.267Z,52.97
2023-04-11T02:21:30.018Z,53.35
2023-04-11T02:23:04.726Z,53.07
2023-04-11T02:24:36.284Z,53.23
2023-04-11T02:26:07.942Z,52.93
2023-04-11T02:27:39.494Z,53.02
2023-04-11T02:29:11.151Z,53.13
2023-04-11T02:30:43.286Z,53.30
2023-04-11T02:32:15.404Z,52.95
2023-04-11T02:33:47.243Z,53.30
2023-04-11T02:35:19.521Z,53.50
2023-04-11T02:36:51.453Z,53.01
2023-04-11T02:38:23.046Z,53.37
2023-04-11T02:39:55.452Z,53.23
2023-04-11T02:41:27.613Z,52.89
2023-04-11T02:43:02.244Z,53.05
2023-04-11T02:44:34.208Z,53.30
2023-04-11T02:46:12.687Z,52.93
2023-04-11T02:47:45.503Z,52.93
2023-04-11T02:49:17.157Z,52.94
2023-04-11T02:50:48.909Z,53.15
2023-04-11T02:52:20.904Z,53.04
2023-04-11T02:53:52.710Z,53.28
2023-04-11T02:55:24.477Z,53.01
2023-04-11T02:56:59.054Z,52.94
2023-04-11T02:58:30.764Z,53.23
2023-04-11T03:00:02.984Z,53.08
2023-04-11T03:01:34.908Z,53.23
2023-04-11T03:03:10.310Z,52.97
2023-04-11T03:04:42.797Z,53.15
2023-04-11T03:06:21.788Z,53.21
2023-04-11T03:07:53.501Z,53.08
2023-04-11T03:09:24.998Z,53.53
2023-04-11T03:10:56.627Z,53.04
2023-04-11T03:12:28.281Z,53.60
2023-04-11T03:14:00.073Z,53.42
2023-04-11T03:15:32.674Z,53.46
2023-04-11T03:17:04.278Z,53.35
2023-04-11T03:18:36.209Z,53.27
2023-04-11T03:20:08.487Z,53.32
2023-04-11T03:21:40.350Z,53.36
2023-04-11T03:23:12.064Z,53.50
2023-04-11T03:24:43.872Z,53.66
2023-04-11T03:26:16.065Z,53.77
2023-04-11T03:27:47.610Z,53.50
2023-04-11T03:29:19.324Z,53.29
2023-04-11T03:30:51.149Z,53.06
2023-04-11T03:32:22.795Z,53.21
2023-04-11T03:33:54.522Z,53.39
2023-04-11T03:35:28.787Z,53.51
2023-04-11T03:37:00.555Z,53.51
2023-04-11T03:38:32.231Z,53.76
2023-04-11T03:40:04.771Z,53.66
2023-04-11T03:41:36.421Z,53.90
2023-04-11T03:43:08.050Z,53.75
2023-04-11T03:44:39.659Z,53.75
2023-04-11T03:46:11.352Z,53.72
2023-04-11T03:47:43.340Z,53.35
2023-04-11T03:49:14.977Z,53.58
2023-04-11T03:50:48.976Z,53.61
2023-04-11T03:52:21.007Z,53.66
2023-04-11T03:53:52.813Z,53.63
2023-04-11T03:55:26.274Z,53.27
2023-04-11T03:56:58.277Z,54.01
2023-04-11T03:58:30.376Z,53.85
2023-04-11T04:00:02.385Z,53.97
2023-04-11T04:01:34.160Z,54.03
2023-04-11T04:03:07.320Z,53.64
2023-04-11T04:04:40.507Z,54.05
2023-04-11T04:06:12.403Z,53.81
2023-04-11T04:07:44.113Z,53.74
2023-04-11T04:09:15.776Z,53.93
2023-04-11T04:10:48.466Z,54.15
2023-04-11T04:12:23.137Z,53.80
2023-04-11T04:13:55.694Z,53.82
2023-04-11T04:15:27.974Z,53.69
2023-04-11T04:16:59.728Z,53.97
2023-04-11T04:18:31.615Z,54.13
2023-04-11T04:20:04.480Z,54.29
2023-04-11T04:21:38.235Z,53.96
2023-04-11T04:23:14.189Z,53.76
2023-04-11T04:24:49.042Z,53.95
2023-04-11T04:26:25.297Z,54.34
2023-04-11T04:27:58.392Z,54.33
2023-04-11T04:29:38.216Z,54.32
2023-04-11T04:31:13.071Z,54.04
2023-04-11T04:32:47.889Z,53.94
2023-04-11T04:34:22.037Z,54.55
2023-04-11T04:35:58.280Z,54.50
2023-04-11T04:37:30.479Z,54.32
2023-04-11T04:39:02.387Z,54.30
2023-04-11T04:40:38.142Z,53.89
2023-04-11T04:42:10.084Z,54.50
2023-04-11T04:43:44.819Z,54.05
2023-04-11T04:45:16.421Z,54.57
2023-04-11T04:46:50.600Z,54.23
2023-04-11T04:48:25.778Z,54.33
2023-04-11T04:49:57.854Z,54.57
2023-04-11T04:51:30.348Z,54.61
2023-04-11T04:53:02.264Z,54.11
2023-04-11T04:54:34.018Z,54.79
2023-04-11T04:56:06.151Z,54.62
2023-04-11T04:57:37.777Z,54.65
2023-04-11T04:59:14.732Z,54.18
2023-04-11T05:00:46.679Z,54.63
2023-04-11T05:02:18.689Z,54.58
2023-04-11T05:03:51.203Z,54.25
2023-04-11T05:05:26.716Z,54.49
2023-04-11T05:06:59.162Z,54.09
2023-04-11T05:08:30.912Z,54.40
2023-04-11T05:10:03.000Z,54.50
2023-04-11T05:11:34.913Z,54.26
2023-04-11T05:13:06.429Z,54.42
2023-04-11T05:14:38.088Z,54.28
2023-04-11T05:16:09.972Z,54.60
2023-04-11T05:17:42.890Z,54.40
2023-04-11T05:19:14.540Z,54.21
2023-04-11T05:20:46.337Z,54.08
2023-04-11T05:22:17.878Z,54.32
2023-04-11T05:23:49.471Z,54.59
2023-04-11T05:25:21.280Z,54.56
2023-04-11T05:26:52.858Z,54.25
2023-04-11T05:28:24.591Z,54.43
2023-04-11T05:29:56.295Z,54.20
2023-04-11T05:31:27.945Z,54.07
2023-04-11T05:32:59.731Z,54.14
2023-04-11T05:34:31.708Z,54.17
2023-04-11T05:36:03.446Z,54.23
2023-04-11T05:37:35.137Z,54.13
2023-04-11T05:39:06.805Z,54.28
2023-04-11T05:40:40.365Z,54.18
2023-04-11T05:42:11.964Z,54.17
2023-04-11T05:43:43.580Z,54.40
2023-04-11T05:45:16.322Z,54.38
2023-04-11T05:46:47.930Z,53.88
2023-04-11T05:48:24.226Z,54.09
2023-04-11T05:49:55.857Z,54.00
2023-04-11T05:51:27.780Z,54.09
2023-04-11T05:52:59.417Z,54.17
2023-04-11T05:54:32.021Z,54.21
2023-04-11T05:56:03.708Z,54.34
2023-04-11T05:57:35.814Z,54.16
2023-04-11T05:59:07.378Z,54.02
2023-04-11T06:00:38.928Z,54.28
2023-04-11T06:02:11.085Z,54.16
2023-04-11T06:03:43.070Z,54.12
2023-04-11T06:05:16.792Z,53.87
2023-04-11T06:06:48.447Z,53.92
2023-04-11T06:08:20.072Z,53.64
2023-04-11T06:09:51.924Z,53.87
2023-04-11T06:11:25.766Z,54.12
2023-04-11T06:12:57.434Z,54.25
2023-04-11T06:14:28.998Z,54.06
2023-04-11T06:16:01.221Z,53.92
2023-04-11T06:17:32.881Z,54.12
2023-04-11T06:19:04.849Z,54.19
2023-04-11T06:20:36.429Z,54.14
2023-04-11T06:22:07.994Z,54.24
2023-04-11T06:23:39.608Z,54.20
2023-04-11T06:25:11.185Z,53.88
2023-04-11T06:26:43.281Z,54.10
2023-04-11T06:28:14.922Z,54.13
2023-04-11T06:29:46.521Z,54.04
2023-04-11T06:31:18.399Z,53.72
2023-04-11T06:32:50.191Z,54.10
2023-04-11T06:34:21.984Z,53.71
2023-04-11T06:35:53.623Z,53.50
2023-04-11T06:37:25.316Z,54.07
2023-04-11T06:38:56.960Z,54.16
2023-04-11T06:40:28.859Z,54.02
2023-04-11T06:42:03.963Z,53.86
2023-04-11T06:43:35.806Z,53.21
2023-04-11T06:45:07.775Z,53.88
2023-04-11T06:46:39.642Z,53.75
2023-04-11T06:48:13.073Z,54.07
2023-04-11T06:49:44.847Z,54.24
2023-04-11T06:51:16.452Z,54.28
2023-04-11T06:52:48.088Z,54.23
2023-04-11T06:54:22.087Z,53.69
2023-04-11T06:55:54.182Z,53.88
2023-04-11T06:57:29.111Z,53.77
2023-04-11T06:59:01.530Z,53.50
2023-04-11T07:00:33.110Z,53.07
2023-04-11T07:02:04.856Z,53.54
2023-04-11T07:03:37.063Z,53.82
2023-04-11T07:05:12.262Z,53.40
2023-04-11T07:06:46.821Z,54.10
2023-04-11T07:08:18.487Z,53.60
2023-04-11T07:09:50.227Z,53.44
2023-04-11T07:11:22.380Z,53.67
2023-04-11T07:12:54.077Z,53.52
2023-04-11T07:14:25.950Z,53.87
2023-04-11T07:15:57.613Z,53.30
2023-04-11T07:17:29.236Z,53.59
2023-04-11T07:19:00.892Z,53.25
2023-04-11T07:20:33.075Z,53.43
2023-04-11T07:22:07.865Z,53.21
2023-04-11T07:23:39.640Z,53.68
2023-04-11T07:25:11.866Z,53.54
2023-04-11T07:26:43.476Z,53.29
2023-04-11T07:28:15.626Z,53.22
2023-04-11T07:29:47.217Z,53.29
2023-04-11T07:31:21.756Z,53.43
2023-04-11T07:32:53.661Z,52.92
2023-04-11T07:34:25.372Z,53.54
2023-04-11T07:35:57.254Z,53.21
2023-04-11T07:37:30.315Z,53.22
2023-04-11T07:39:02.315Z,53.53
2023-04-11T07:40:33.940Z,53.20
2023-04-11T07:42:05.886Z,53.03
2023-04-11T07:43:37.506Z,53.32
2023-04-11T07:45:09.293Z,53.23
2023-04-11T07:46:41.361Z,53.25
2023-04-11T07:48:12.912Z,53.96
2023-04-11T07:49:44.619Z,53.75
2023-04-11T07:51:17.257Z,52.87
2023-04-11T07:52:48.810Z,53.11
2023-04-11T07:54:20.470Z,53.38
2023-04-11T07:55:52.044Z,53.49
2023-04-11T07:57:23.577Z,53.13
2023-04-11T07:58:55.241Z,52.55
2023-04-11T08:00:30.950Z,52.96
2023-04-11T08:02:03.309Z,52.68
2023-04-11T08:03:35.324Z,52.86
2023-04-11T08:05:10.186Z,52.88
2023-04-11T08:06:42.057Z,53.20
2023-04-11T08:08:18.068Z,53.09
2023-04-11T08:09:52.935Z,53.34
2023-04-11T08:11:24.748Z,53.35
2023-04-11T08:12:59.516Z,52.89
2023-04-11T08:14:31.121Z,53.05
2023-04-11T08:16:12.227Z,52.55
2023-04-11T08:17:44.722Z,52.55
2023-04-11T08:19:17.279Z,52.26
2023-04-11T08:20:49.541Z,52.79
2023-04-11T08:22:21.278Z,52.78
2023-04-11T08:23:52.822Z,52.86
2023-04-11T08:25:24.684Z,52.42
2023-04-11T08:26:56.374Z,52.37
2023-04-11T08:28:28.075Z,52.46
2023-04-11T08:30:00.207Z,52.47
2023-04-11T08:31:32.518Z,52.68
2023-04-11T08:33:04.342Z,52.23
2023-04-11T08:34:35.891Z,53.02
2023-04-11T08:36:10.945Z,52.12
2023-04-11T08:37:44.471Z,52.41
2023-04-11T08:39:16.321Z,52.20
2023-04-11T08:40:48.010Z,53.10
2023-04-11T08:42:33.002Z,52.74
2023-04-11T08:44:05.239Z,52.22
2023-04-11T08:45:36.866Z,52.21
2023-04-11T08:47:08.498Z,52.40
2023-04-11T08:48:40.129Z,52.40
2023-04-11T08:50:11.991Z,52.38
2023-04-11T08:51:44.245Z,52.53
2023-04-11T08:53:16.268Z,52.45
2023-04-11T08:54:48.110Z,52.35
2023-04-11T08:56:19.856Z,51.76
2023-04-11T08:57:53.754Z,51.94
2023-04-11T08:59:25.721Z,51.89
2023-04-11T09:00:57.404Z,51.78
2023-04-11T09:02:29.002Z,52.19
2023-04-11T09:04:02.622Z,52.11
2023-04-11T09:05:35.264Z,51.79
2023-04-11T09:07:08.151Z,51.75
2023-04-11T09:08:42.966Z,51.74
2023-04-11T09:10:21.326Z,51.84
2023-04-11T09:11:54.193Z,51.57
2023-04-11T09:13:26.276Z,51.85
2023-04-11T09:14:58.508Z,51.72
2023-04-11T09:16:30.397Z,51.71
2023-04-11T09:18:03.009Z,51.82
2023-04-11T09:19:35.217Z,51.80
2023-04-11T09:21:07.920Z,51.78
2023-04-11T09:22:41.380Z,51.87
2023-04-11T09:24:15.939Z,51.64
2023-04-11T09:25:48.961Z,51.63
2023-04-11T09:27:25.308Z,51.44
2023-04-11T09:28:57.186Z,51.40
2023-04-11T09:30:29.445Z,51.25
2023-04-11T09:32:01.227Z,51.37
2023-04-11T09:33:32.810Z,50.94
2023-04-11T09:35:10.164Z,50.80
2023-04-11T09:36:42.575Z,50.69
2023-04-11T09:38:14.754Z,50.24
2023-04-11T09:39:46.783Z,50.20
2023-04-11T09:41:29.638Z,50.43
2023-04-11T09:43:02.257Z,50.14
2023-04-11T09:44:37.891Z,50.20
2023-04-11T09:46:10.434Z,50.28
2023-04-11T09:47:44.576Z,50.36
2023-04-11T09:49:16.509Z,50.31
2023-04-11T09:50:48.630Z,50.14
2023-04-11T09:52:20.216Z,50.08
2023-04-11T09:53:54.795Z,49.94
2023-04-11T09:55:26.799Z,49.44
2023-04-11T09:56:58.455Z,49.24
2023-04-11T09:58:31.607Z,49.54
2023-04-11T10:00:16.365Z,49.49
2023-04-11T10:01:49.538Z,49.39
2023-04-11T10:03:23.980Z,49.15
2023-04-11T10:05:00.370Z,48.86
2023-04-11T10:06:34.451Z,49.05
2023-04-11T10:08:08.658Z,48.89
2023-04-11T10:09:41.266Z,48.94
2023-04-11T10:11:14.759Z,49.06
2023-04-11T10:12:49.416Z,48.90
2023-04-11T10:14:36.311Z,48.31
2023-04-11T10:16:11.540Z,48.31
2023-04-11T10:17:43.430Z,48.28
2023-04-11T10:19:18.345Z,47.96
2023-04-11T10:20:50.610Z,48.23
2023-04-11T10:22:40.722Z,47.86
2023-04-11T10:24:17.392Z,48.05
2023-04-11T10:25:51.062Z,47.79
2023-04-11T10:27:45.544Z,47.71
2023-04-11T10:29:29.817Z,47.42
2023-04-11T10:31:03.440Z,47.39
2023-04-11T10:32:36.349Z,46.84
2023-04-11T10:34:11.757Z,47.10
2023-04-11T10:35:59.504Z,47.18
2023-04-11T10:37:34.423Z,47.07
2023-04-11T10:39:06.083Z,46.77
2023-04-11T10:40:37.673Z,46.98
2023-04-11T10:42:28.069Z,46.84
2023-04-11T10:44:14.860Z,46.77
2023-04-11T10:45:46.843Z,46.78
2023-04-11T10:47:18.811Z,46.65
2023-04-11T10:48:57.069Z,46.54
2023-04-11T10:50:31.930Z,46.14
2023-04-11T10:52:22.904Z,45.98
2023-04-11T10:53:56.022Z,46.34
2023-04-11T10:55:29.001Z,46.23
2023-04-11T10:57:00.789Z,45.56
2023-04-11T10:58:37.203Z,45.88
2023-04-11T11:00:14.106Z,45.77
2023-04-11T11:01:52.882Z,45.77
2023-04-11T11:03:25.840Z,45.74
2023-04-11T11:04:57.874Z,45.86
2023-04-11T11:06:29.922Z,45.51
2023-04-11T11:08:01.660Z,45.28
2023-04-11T11:09:33.870Z,45.68
2023-04-11T11:11:07.022Z,45.51
2023-04-11T11:12:38.804Z,45.22
2023-04-11T11:14:10.563Z,45.51
2023-04-11T11:15:47.659Z,45.25
2023-04-11T11:17:19.812Z,45.03
2023-04-11T11:18:52.305Z,45.02
2023-04-11T11:20:24.030Z,44.62
2023-04-11T11:21:57.047Z,44.47
2023-04-11T11:23:28.687Z,44.88
2023-04-11T11:25:07.629Z,44.50
2023-04-11T11:26:42.658Z,44.45
2023-04-11T11:28:14.367Z,44.43
2023-04-11T11:29:46.510Z,44.42
2023-04-11T11:31:18.227Z,44.47
2023-04-11T11:32:49.982Z,44.38
2023-04-11T11:34:29.194Z,44.36
2023-04-11T11:36:00.981Z,44.36
2023-04-11T11:37:32.616Z,44.15
2023-04-11T11:39:05.921Z,44.49
2023-04-11T11:40:37.685Z,44.37
2023-04-11T11:42:10.312Z,43.89
2023-04-11T11:43:42.387Z,43.92
2023-04-11T11:45:16.939Z,43.71
2023-04-11T11:47:04.752Z,43.90
2023-04-11T11:48:36.767Z,43.79
2023-04-11T11:50:08.666Z,43.62
2023-04-11T11:51:41.175Z,43.64
2023-04-11T11:53:17.899Z,43.57
2023-04-11T11:54:55.837Z,43.20
2023-04-11T11:56:27.592Z,43.30
2023-04-11T11:57:59.846Z,43.41
2023-04-11T11:59:32.004Z,43.61
2023-04-11T12:01:03.753Z,43.82
2023-04-11T12:02:36.416Z,43.59
2023-04-11T12:04:11.287Z,43.31
2023-04-11T12:05:44.380Z,43.96
2023-04-11T12:07:20.573Z,43.50
2023-04-11T12:08:54.236Z,43.27
2023-04-11T12:10:28.056Z,43.44
2023-04-11T12:11:59.810Z,43.15
2023-04-11T12:13:38.725Z,42.87
2023-04-11T12:15:13.891Z,42.87
2023-04-11T12:16:45.765Z,42.81
2023-04-11T12:18:22.050Z,42.84
2023-04-11T12:19:55.377Z,43.16
2023-04-11T12:21:27.150Z,42.83
2023-04-11T12:23:08.593Z,42.45
2023-04-11T12:24:45.992Z,42.07
2023-04-11T12:26:26.625Z,42.69
2023-04-11T12:27:58.258Z,42.41
2023-04-11T12:29:30.026Z,42.56
2023-04-11T12:31:09.156Z,42.29
2023-04-11T12:32:40.916Z,42.16
2023-04-11T12:34:13.609Z,42.26
2023-04-11T12:35:45.436Z,42.24
2023-04-11T12:37:17.377Z,42.27
2023-04-11T12:38:49.027Z,42.37
2023-04-11T12:40:21.051Z,42.33
2023-04-11T12:41:52.938Z,42.20
2023-04-11T12:43:24.637Z,42.36
2023-04-11T12:44:59.019Z,42.14
2023-04-11T12:46:31.010Z,41.92
2023-04-11T12:48:02.822Z,41.94
2023-04-11T12:49:34.625Z,41.93
2023-04-11T12:51:06.607Z,42.41
2023-04-11T12:52:38.721Z,42.33
2023-04-11T12:54:10.665Z,41.95
2023-04-11T12:55:44.763Z,42.13
2023-04-11T12:57:17.255Z,41.74
2023-04-11T12:58:49.007Z,41.71
2023-04-11T13:00:21.491Z,41.47
2023-04-11T13:01:54.003Z,41.68
2023-04-11T13:03:25.990Z,41.80
2023-04-11T13:05:00.085Z,41.81
2023-04-11T13:06:32.384Z,41.75
2023-04-11T13:08:04.300Z,41.61
2023-04-11T13:09:36.422Z,41.46
2023-04-11T13:11:08.368Z,41.83
2023-04-11T13:12:41.965Z,41.85
2023-04-11T13:14:14.836Z,41.34
2023-04-11T13:15:51.386Z,41.73
2023-04-11T13:17:23.384Z,41.65
2023-04-11T13:18:55.648Z,41.22
2023-04-11T13:20:29.261Z,41.35
2023-04-11T13:22:07.450Z,41.57
2023-04-11T13:23:39.645Z,41.51
2023-04-11T13:25:13.127Z,41.61
2023-04-11T13:26:45.738Z,41.30
2023-04-11T13:28:17.506Z,41.15
2023-04-11T13:29:52.349Z,40.88
2023-04-11T13:31:49.396Z,40.84
2023-04-11T13:33:23.788Z,41.13
2023-04-11T13:34:55.735Z,40.75
2023-04-11T13:36:39.658Z,40.85
2023-04-11T13:38:12.825Z,40.92
2023-04-11T13:39:45.056Z,40.90
2023-04-11T13:41:16.929Z,40.87
2023-04-11T13:42:53.177Z,41.09
2023-04-11T13:44:25.219Z,40.85
2023-04-11T13:45:57.243Z,40.97
2023-04-11T13:47:29.079Z,40.82
2023-04-11T13:51:07.012Z,40.55
2023-04-11T13:52:39.847Z,40.85
2023-04-11T13:54:14.710Z,40.38
2023-04-11T13:55:55.286Z,40.41
2023-04-11T13:57:33.434Z,40.21
2023-04-11T13:59:05.350Z,40.20
2023-04-11T14:00:40.248Z,40.45
2023-04-11T14:02:12.239Z,40.68
2023-04-11T14:03:51.335Z,40.36
2023-04-11T14:05:25.484Z,40.28
2023-04-11T14:06:57.760Z,40.45
2023-04-11T14:08:33.464Z,40.71
2023-04-11T14:10:06.400Z,40.30
2023-04-11T14:11:42.803Z,40.35
2023-04-11T14:13:14.520Z,40.33
2023-04-11T14:14:46.589Z,40.41
2023-04-11T14:16:21.819Z,40.53
2023-04-11T14:19:44.956Z,40.45
2023-04-11T14:21:17.345Z,40.50
2023-04-11T14:22:51.364Z,40.69
2023-04-11T14:24:23.483Z,40.66
2023-04-11T14:25:55.339Z,40.55
2023-04-11T14:27:30.269Z,40.35
2023-04-11T14:30:08.577Z,40.34
2023-04-11T14:31:04.383Z,40.30
2023-04-11T14:32:40.955Z,40.38
2023-04-11T14:34:13.928Z,40.59
2023-04-11T14:35:48.701Z,40.60
2023-04-11T14:37:23.375Z,40.62
2023-04-11T14:40:52.239Z,40.60
2023-04-11T14:42:37.068Z,40.55
2023-04-11T14:46:06.296Z,40.66
2023-04-11T14:49:44.732Z,40.50
2023-04-11T14:51:29.926Z,40.66
2023-04-11T14:53:04.604Z,40.79
2023-04-11T14:55:05.560Z,40.63
2023-04-11T14:58:56.055Z,40.79
2023-04-11T15:00:31.166Z,40.61
2023-04-11T15:02:06.030Z,40.76
2023-04-11T15:03:40.286Z,40.67
2023-04-11T15:05:26.625Z,40.74
2023-04-11T15:06:59.976Z,40.68
2023-04-11T15:08:45.651Z,40.60
2023-04-11T15:10:27.087Z,40.62
2023-04-11T15:12:08.164Z,40.73
2023-04-11T15:13:40.184Z,40.73
2023-04-11T15:15:15.216Z,40.87
2023-04-11T15:17:12.302Z,40.77
2023-04-11T15:18:59.750Z,40.66
2023-04-11T15:20:31.807Z,40.73
2023-04-11T15:23:50.753Z,40.95
2023-04-11T15:25:26.297Z,41.01
2023-04-11T15:26:57.903Z,41.25
2023-04-11T15:28:49.881Z,41.10
2023-04-11T15:30:22.080Z,41.02
2023-04-11T15:31:54.459Z,41.09
2023-04-11T15:33:26.939Z,41.09
2023-04-11T15:35:02.664Z,41.22
2023-04-11T15:36:51.718Z,41.36
2023-04-11T15:38:23.704Z,41.35
2023-04-11T15:39:58.871Z,41.37
2023-04-11T15:41:32.259Z,41.44
2023-04-11T15:43:07.519Z,41.34
2023-04-11T15:44:39.159Z,41.56
2023-04-11T15:46:11.779Z,41.56
2023-04-11T15:47:43.644Z,41.61
2023-04-11T15:49:17.687Z,41.41
2023-04-11T15:50:49.426Z,41.24
2023-04-11T15:52:23.963Z,41.52
2023-04-11T15:53:56.715Z,41.54
2023-04-11T15:55:29.278Z,41.40
2023-04-11T15:57:02.797Z,41.28
2023-04-11T15:58:34.421Z,41.34
2023-04-11T16:00:09.682Z,41.50
2023-04-11T16:01:42.193Z,41.60
2023-04-11T16:03:14.440Z,41.45
2023-04-11T16:04:47.898Z,41.47
2023-04-11T16:06:20.693Z,41.29
2023-04-11T16:07:52.512Z,41.45
2023-04-11T16:09:24.224Z,41.29
2023-04-11T16:10:55.998Z,41.37
2023-04-11T16:12:27.767Z,41.28
2023-04-11T16:14:00.007Z,41.44
2023-04-11T16:15:33.184Z,41.39
2023-04-11T16:17:04.835Z,41.03
2023-04-11T16:18:36.662Z,41.20
2023-04-11T16:20:12.042Z,41.22
2023-04-11T16:21:44.386Z,41.54
2023-04-11T16:23:16.294Z,41.41
2023-04-11T16:24:47.879Z,41.31
2023-04-11T16:26:20.549Z,41.19
2023-04-11T16:27:52.242Z,41.62
2023-04-11T16:29:25.456Z,41.54
2023-04-11T16:30:58.365Z,41.82
2023-04-11T16:32:30.288Z,41.53
2023-04-11T16:34:02.078Z,41.51
2023-04-11T16:35:34.434Z,41.51
2023-04-11T16:37:06.526Z,41.88
2023-04-11T16:38:38.944Z,41.64
2023-04-11T16:40:13.986Z,41.66
2023-04-11T16:41:45.947Z,41.81
2023-04-11T16:43:17.855Z,41.94
2023-04-11T16:44:49.494Z,42.03
2023-04-11T16:46:21.129Z,41.87
2023-04-11T16:47:53.084Z,42.05
2023-04-11T16:49:24.738Z,41.94
2023-04-11T16:50:56.356Z,41.95
2023-04-11T16:52:28.282Z,42.13
2023-04-11T16:53:59.967Z,42.09
2023-04-11T16:55:31.777Z,42.08
2023-04-11T16:57:03.780Z,41.65
2023-04-11T16:58:35.729Z,41.59
2023-04-11T17:00:19.972Z,42.10
2023-04-11T17:01:52.202Z,42.01
2023-04-11T17:03:24.053Z,42.02
2023-04-11T17:04:55.952Z,42.02
2023-04-11T17:06:28.492Z,41.93
2023-04-11T17:08:00.218Z,42.24
2023-04-11T17:09:32.040Z,42.10
2023-04-11T17:11:05.979Z,42.54
2023-04-11T17:12:37.678Z,42.29
2023-04-11T17:14:09.516Z,42.36
2023-04-11T17:15:41.379Z,41.84
2023-04-11T17:17:13.310Z,41.89
2023-04-11T17:18:44.999Z,41.95
2023-04-11T17:20:16.988Z,42.28
2023-04-11T17:21:50.387Z,42.07
2023-04-11T17:23:31.901Z,42.89
2023-04-11T17:25:12.699Z,42.30
2023-04-11T17:26:44.608Z,42.72
2023-04-11T17:28:16.907Z,42.60
2023-04-11T17:29:48.595Z,42.40
2023-04-11T17:31:21.056Z,42.28
2023-04-11T17:32:53.901Z,42.79
2023-04-11T17:34:25.629Z,43.21
2023-04-11T17:35:57.329Z,42.43
2023-04-11T17:37:29.106Z,42.26
2023-04-11T17:39:01.416Z,43.09
2023-04-11T17:40:33.073Z,42.05
2023-04-11T17:42:05.074Z,42.68
2023-04-11T17:43:36.695Z,42.51
2023-04-11T17:45:17.779Z,42.58
2023-04-11T17:46:50.257Z,43.42
2023-04-11T17:48:23.207Z,42.95
2023-04-11T17:49:57.053Z,43.36
2023-04-11T17:51:29.346Z,42.67
2023-04-11T17:53:01.065Z,43.27
2023-04-11T17:54:32.924Z,42.94
2023-04-11T17:56:06.253Z,42.76
2023-04-11T17:57:38.377Z,42.74
2023-04-11T17:59:11.727Z,43.20
2023-04-11T18:00:54.683Z,43.26
2023-04-11T18:02:28.715Z,43.18
2023-04-11T18:04:01.816Z,43.17
2023-04-11T18:05:36.784Z,43.13
2023-04-11T18:07:08.472Z,43.72
2023-04-11T18:08:50.345Z,43.14
2023-04-11T18:10:23.253Z,43.25
2023-04-11T18:11:55.679Z,43.02
2023-04-11T18:13:29.007Z,43.02
2023-04-11T18:15:01.270Z,43.33
2023-04-11T18:16:33.461Z,43.13
2023-04-11T18:18:09.842Z,43.23
2023-04-11T18:19:42.281Z,43.85
2023-04-11T18:21:14.327Z,43.34
2023-04-11T18:22:49.384Z,43.31
2023-04-11T18:24:22.123Z,43.63
2023-04-11T18:25:53.701Z,43.89
2023-04-11T18:27:25.715Z,43.32
2023-04-11T18:28:57.240Z,44.17
2023-04-11T18:30:32.142Z,43.49
2023-04-11T18:32:03.984Z,43.65
2023-04-11T18:33:36.357Z,43.85
2023-04-11T18:35:12.480Z,43.74
2023-04-11T18:36:44.746Z,44.20
2023-04-11T18:38:16.641Z,44.28
2023-04-11T18:39:48.903Z,43.43
2023-04-11T18:41:21.119Z,44.07
2023-04-11T18:42:54.186Z,44.33
2023-04-11T18:44:27.039Z,43.99
2023-04-11T18:45:58.708Z,44.25
2023-04-11T18:47:30.529Z,44.46
2023-04-11T18:49:08.247Z,44.63
2023-04-11T18:50:47.087Z,44.43
2023-04-11T18:52:22.056Z,44.06
2023-04-11T18:53:53.792Z,44.17
2023-04-11T18:55:25.960Z,44.07
2023-04-11T18:56:59.062Z,44.18
2023-04-11T18:58:33.509Z,44.07
2023-04-11T19:00:14.783Z,44.64
2023-04-11T19:01:48.052Z,44.68
2023-04-11T19:03:20.109Z,44.21
2023-04-11T19:04:55.485Z,44.62
2023-04-11T19:06:27.703Z,45.01
2023-04-11T19:08:04.024Z,44.66
2023-04-11T19:09:35.643Z,44.45
2023-04-11T19:11:07.356Z,44.30
2023-04-11T19:12:41.692Z,44.20
2023-04-11T19:14:13.695Z,44.68
2023-04-11T19:15:46.161Z,44.62
2023-04-11T19:17:19.556Z,44.25
2023-04-11T19:18:56.053Z,44.16
2023-04-11T19:20:28.357Z,44.49
2023-04-11T19:22:00.174Z,44.49
2023-04-11T19:23:32.344Z,44.76
2023-04-11T19:25:06.087Z,44.88
2023-04-11T19:26:37.965Z,44.38
2023-04-11T19:28:09.917Z,44.69
2023-04-11T19:29:42.104Z,44.42
2023-04-11T19:31:13.986Z,45.08
2023-04-11T19:32:48.096Z,44.44
2023-04-11T19:34:26.095Z,45.16
2023-04-11T19:35:59.750Z,45.22
2023-04-11T19:37:33.347Z,45.08
2023-04-11T19:39:11.404Z,44.84
2023-04-11T19:40:45.818Z,45.41
2023-04-11T19:42:19.568Z,45.65
2023-04-11T19:43:54.190Z,45.26
2023-04-11T19:45:26.005Z,44.76
2023-04-11T19:46:57.798Z,44.97
2023-04-11T19:48:32.069Z,45.41
2023-04-11T19:50:06.373Z,45.51
2023-04-11T19:51:42.472Z,45.74
2023-04-11T19:53:24.576Z,45.90
2023-04-11T19:54:56.768Z,45.54
2023-04-11T19:57:00.794Z,45.26
2023-04-11T19:58:35.558Z,45.03
2023-04-11T20:00:14.497Z,45.19
2023-04-11T20:01:46.499Z,45.76
2023-04-11T20:03:18.562Z,45.80
2023-04-11T20:04:50.312Z,45.40
2023-04-11T20:06:23.165Z,45.38
2023-04-11T20:07:57.814Z,45.12
2023-04-11T20:09:29.784Z,45.69
2023-04-11T20:11:04.066Z,45.39
2023-04-11T20:12:35.712Z,46.19
2023-04-11T20:14:07.659Z,45.79
2023-04-11T20:15:41.861Z,45.70
2023-04-11T20:17:13.507Z,45.85
2023-04-11T20:18:45.344Z,45.23